Roald Amundsen — DARG — position and weather

sailwx.info

Track history (hours):
 
Tides and Currents Weather Stations Pressure Air Temp Water Temp Dewpoint Dewpoint Depression Visibility Wind Speed Wind Dir Waves Ship Positions

Roald Amundsen (Germany)

Built as a deep sea lugger in 1952. Converted and rigged as a traditional brig in 1992.

Ship's website: http://www.sailtraining.de/

Last reported at 2019-Nov-19 23:15 UTC. Time now 2019-Dec-08 10:43 UTC.
Position N 28°08' W 016°18'.
Warning: this ship's position is 18 days out of date.

Length 50 m; beam 7.4 m; draft 4.5 m.

Type: Sailing vessel. MMSI: 211215170.

Date/timePositionNaut miles runAvg speedWind from/ knotsBaromVisibWave heightAir tempDewpointWater temp
2019-Nov-19 23:15N 28°08' W 016°18'2 1.6
2019-Nov-19 22:17N 28°10' W 016°18'2 1.3
2019-Nov-19 21:00N 28°11' W 016°17'12 4.8
2019-Nov-19 18:31N 28°23' W 016°14'3 6.9
2019-Nov-19 18:01N 28°26' W 016°14'2 1.2
2019-Nov-19 16:28N 28°28' W 016°15'0 0.0
2019-Nov-19 14:28N 28°28' W 016°15'0 0.0
2019-Nov-19 13:28N 28°28' W 016°15'0 0.0
2019-Nov-19 10:58N 28°28' W 016°15'0 0.0
2019-Nov-19 08:58N 28°28' W 016°15'0 0.0
2019-Nov-19 06:58N 28°28' W 016°15'0 0.0
2019-Nov-19 04:28N 28°28' W 016°15'0 0.0
2019-Nov-19 01:58N 28°28' W 016°15'0 0.0
2019-Nov-18 23:28N 28°28' W 016°15'0 0.0
2019-Nov-18 22:28N 28°28' W 016°15'0 0.0
2019-Nov-18 21:58N 28°28' W 016°15'0 0.0
2019-Nov-18 21:28N 28°28' W 016°15'0 0.0
2019-Nov-18 20:28N 28°28' W 016°15'0 0.0
2019-Nov-18 19:58N 28°28' W 016°15'0 0.0
2019-Nov-18 19:28N 28°28' W 016°15'0 0.0
2019-Nov-18 15:58N 28°28' W 016°15'0 0.0
2019-Nov-18 15:28N 28°28' W 016°15'0 0.0
2019-Nov-18 12:58N 28°28' W 016°15'0 0.0
2019-Nov-18 12:28N 28°28' W 016°15'0 0.0
2019-Nov-18 10:58N 28°28' W 016°15'0 0.0
2019-Nov-18 09:28N 28°28' W 016°15'0 0.0
2019-Nov-18 05:28N 28°28' W 016°15'0 0.0
2019-Nov-18 04:58N 28°28' W 016°15'0 0.0
2019-Nov-18 03:58N 28°28' W 016°15'0 0.0
2019-Nov-18 03:28N 28°28' W 016°15'0 0.0
2019-Nov-18 01:58N 28°28' W 016°15'0 0.0
2019-Nov-18 00:58N 28°28' W 016°15'0 0.0
2019-Nov-17 23:28N 28°28' W 016°15'0 0.0
2019-Nov-17 22:58N 28°28' W 016°15'0 0.0
2019-Nov-17 21:58N 28°28' W 016°15'0 0.0
2019-Nov-17 19:58N 28°28' W 016°15'0 0.0
2019-Nov-17 17:28N 28°28' W 016°15'0 0.0
2019-Nov-17 16:58N 28°28' W 016°15'0 0.0
2019-Nov-17 07:28N 28°28' W 016°15'0 0.0
2019-Nov-17 04:28N 28°28' W 016°15'0 0.0
2019-Nov-17 03:58N 28°28' W 016°15'0 0.0
2019-Nov-17 03:28N 28°28' W 016°15'0 0.0
2019-Nov-17 01:28N 28°28' W 016°15'0 0.0
2019-Nov-16 21:28N 28°28' W 016°15'0 0.0
2019-Nov-16 20:28N 28°28' W 016°15'0 0.0
2019-Nov-16 19:28N 28°28' W 016°15'0 0.0
2019-Nov-16 18:58N 28°28' W 016°15'0 0.0
2019-Nov-16 18:28N 28°28' W 016°15'0 0.0
2019-Nov-16 17:28N 28°28' W 016°15'0 0.0
2019-Nov-16 16:58N 28°28' W 016°15'0 0.0
2019-Nov-16 15:58N 28°28' W 016°15'0 0.0
2019-Nov-16 15:28N 28°28' W 016°15'0 0.0
2019-Nov-16 07:28N 28°28' W 016°15'0 0.0
2019-Nov-16 06:28N 28°28' W 016°15'0 0.0
2019-Nov-16 03:28N 28°28' W 016°15'0 0.0
2019-Nov-16 02:58N 28°28' W 016°15'0 0.0
2019-Nov-16 02:28N 28°28' W 016°15'0 0.0
2019-Nov-15 22:28N 28°28' W 016°15'0 0.0
2019-Nov-15 19:58N 28°28' W 016°15'0 0.0
2019-Nov-15 18:58N 28°28' W 016°15'0 0.0
2019-Nov-15 17:58N 28°28' W 016°15'0 0.0
2019-Nov-15 15:28N 28°28' W 016°15'0 0.0
2019-Nov-15 13:28N 28°28' W 016°15'0 0.0
2019-Nov-15 11:58N 28°28' W 016°15'0 0.0
2019-Nov-15 09:28N 28°28' W 016°15'0 0.0
2019-Nov-15 08:28N 28°28' W 016°15'0 0.0
2019-Nov-15 06:58N 28°28' W 016°15'0 0.0
2019-Nov-15 04:28N 28°28' W 016°15'0 0.0
2019-Nov-15 03:28N 28°28' W 016°15'0 0.0
2019-Nov-14 23:58N 28°28' W 016°15'0 0.0
2019-Nov-14 22:28N 28°28' W 016°15'0 0.0
2019-Nov-14 19:28N 28°28' W 016°15'0 0.0
2019-Nov-14 18:58N 28°28' W 016°15'0 0.0
2019-Nov-14 18:28N 28°28' W 016°15'0 0.0
2019-Nov-14 17:58N 28°28' W 016°15'0 0.0
2019-Nov-14 17:28N 28°28' W 016°15'8 1.1
2019-Nov-14 10:30N 28°27' W 016°06'5 1.2
2019-Nov-14 06:29N 28°31' W 016°10'0 0.0
2019-Nov-14 03:59N 28°31' W 016°10'0 0.0
2019-Nov-14 01:59N 28°31' W 016°10'0 0.0
2019-Nov-13 23:29N 28°31' W 016°10'0 0.0
2019-Nov-13 21:29N 28°31' W 016°10'0 0.0
2019-Nov-13 20:29N 28°31' W 016°10'0 0.0
2019-Nov-13 18:29N 28°31' W 016°10'0 0.0
2019-Nov-13 17:59N 28°31' W 016°10'0 0.0
2019-Nov-13 15:59N 28°31' W 016°10'0 0.0
2019-Nov-13 14:29N 28°31' W 016°10'0 0.0
2019-Nov-13 13:59N 28°31' W 016°10'0 0.0
2019-Nov-13 12:29N 28°31' W 016°10'0 0.0
2019-Nov-13 11:29N 28°31' W 016°10'0 0.0
2019-Nov-13 09:59N 28°31' W 016°10'0 0.0
2019-Nov-13 09:29N 28°31' W 016°10'0 0.0
2019-Nov-13 08:29N 28°31' W 016°10'0 0.0
2019-Nov-13 05:59N 28°31' W 016°10'0 0.0
2019-Nov-13 02:59N 28°31' W 016°10'0 0.0
2019-Nov-13 02:29N 28°31' W 016°10'0 0.0
2019-Nov-13 01:59N 28°31' W 016°10'0 0.0
2019-Nov-12 23:59N 28°31' W 016°10'0 0.0
2019-Nov-12 23:29N 28°31' W 016°10'0 0.0
2019-Nov-12 21:59N 28°31' W 016°10'0 0.0
2019-Nov-12 17:59N 28°31' W 016°10'5 2.1
2019-Nov-12 15:30N 28°33' W 016°04'3 6.0
2019-Nov-12 14:59N 28°33' W 016°01'6 5.2
2019-Nov-12 13:50N 28°35' W 015°54'1 2.7
2019-Nov-12 13:28N 28°35' W 015°55'1 2.0
2019-Nov-12 12:59N 28°36' W 015°54'3 3.3
2019-Nov-12 12:00N 28°38' W 015°51'3 4.3
2019-Nov-12 11:20N 28°41' W 015°50'37 4.6
2019-Nov-12 03:19N 29°11' W 016°12'28 4.8
2019-Nov-11 21:29N 29°25' W 015°44'  
Track history (hours):
 
Tides and Currents Weather Stations Pressure Air Temp Water Temp Dewpoint Dewpoint Depression Visibility Wind Speed Wind Dir Waves Ship Positions

Roald Amundsen (Germany)

Built as a deep sea lugger in 1952. Converted and rigged as a traditional brig in 1992.

Ship's website: http://www.sailtraining.de/

Last reported at 2019-Nov-19 23:15 UTC. Time now 2019-Dec-08 10:43 UTC.
Position N 28°08' W 016°18'.
Warning: this ship's position is 18 days out of date.

Length 50 m; beam 7.4 m; draft 4.5 m.

Type: Sailing vessel. MMSI: 211215170.

Date/timePositionNaut miles runAvg speedWind from/ knotsBaromVisibWave heightAir tempDewpointWater temp
2019-Nov-19 23:15N 28°08' W 016°18'2 1.6
2019-Nov-19 22:17N 28°10' W 016°18'2 1.3
2019-Nov-19 21:00N 28°11' W 016°17'12 4.8
2019-Nov-19 18:31N 28°23' W 016°14'3 6.9
2019-Nov-19 18:01N 28°26' W 016°14'2 1.2
2019-Nov-19 16:28N 28°28' W 016°15'0 0.0
2019-Nov-19 14:28N 28°28' W 016°15'0 0.0
2019-Nov-19 13:28N 28°28' W 016°15'0 0.0
2019-Nov-19 10:58N 28°28' W 016°15'0 0.0
2019-Nov-19 08:58N 28°28' W 016°15'0 0.0
2019-Nov-19 06:58N 28°28' W 016°15'0 0.0
2019-Nov-19 04:28N 28°28' W 016°15'0 0.0
2019-Nov-19 01:58N 28°28' W 016°15'0 0.0
2019-Nov-18 23:28N 28°28' W 016°15'0 0.0
2019-Nov-18 22:28N 28°28' W 016°15'0 0.0
2019-Nov-18 21:58N 28°28' W 016°15'0 0.0
2019-Nov-18 21:28N 28°28' W 016°15'0 0.0
2019-Nov-18 20:28N 28°28' W 016°15'0 0.0
2019-Nov-18 19:58N 28°28' W 016°15'0 0.0
2019-Nov-18 19:28N 28°28' W 016°15'0 0.0
2019-Nov-18 15:58N 28°28' W 016°15'0 0.0
2019-Nov-18 15:28N 28°28' W 016°15'0 0.0
2019-Nov-18 12:58N 28°28' W 016°15'0 0.0
2019-Nov-18 12:28N 28°28' W 016°15'0 0.0
2019-Nov-18 10:58N 28°28' W 016°15'0 0.0
2019-Nov-18 09:28N 28°28' W 016°15'0 0.0
2019-Nov-18 05:28N 28°28' W 016°15'0 0.0
2019-Nov-18 04:58N 28°28' W 016°15'0 0.0
2019-Nov-18 03:58N 28°28' W 016°15'0 0.0
2019-Nov-18 03:28N 28°28' W 016°15'0 0.0
2019-Nov-18 01:58N 28°28' W 016°15'0 0.0
2019-Nov-18 00:58N 28°28' W 016°15'0 0.0
2019-Nov-17 23:28N 28°28' W 016°15'0 0.0
2019-Nov-17 22:58N 28°28' W 016°15'0 0.0
2019-Nov-17 21:58N 28°28' W 016°15'0 0.0
2019-Nov-17 19:58N 28°28' W 016°15'0 0.0
2019-Nov-17 17:28N 28°28' W 016°15'0 0.0
2019-Nov-17 16:58N 28°28' W 016°15'0 0.0
2019-Nov-17 07:28N 28°28' W 016°15'0 0.0
2019-Nov-17 04:28N 28°28' W 016°15'0 0.0
2019-Nov-17 03:58N 28°28' W 016°15'0 0.0
2019-Nov-17 03:28N 28°28' W 016°15'0 0.0
2019-Nov-17 01:28N 28°28' W 016°15'0 0.0
2019-Nov-16 21:28N 28°28' W 016°15'0 0.0
2019-Nov-16 20:28N 28°28' W 016°15'0 0.0
2019-Nov-16 19:28N 28°28' W 016°15'0 0.0
2019-Nov-16 18:58N 28°28' W 016°15'0 0.0
2019-Nov-16 18:28N 28°28' W 016°15'0 0.0
2019-Nov-16 17:28N 28°28' W 016°15'0 0.0
2019-Nov-16 16:58N 28°28' W 016°15'0 0.0
2019-Nov-16 15:58N 28°28' W 016°15'0 0.0
2019-Nov-16 15:28N 28°28' W 016°15'0 0.0
2019-Nov-16 07:28N 28°28' W 016°15'0 0.0
2019-Nov-16 06:28N 28°28' W 016°15'0 0.0
2019-Nov-16 03:28N 28°28' W 016°15'0 0.0
2019-Nov-16 02:58N 28°28' W 016°15'0 0.0
2019-Nov-16 02:28N 28°28' W 016°15'0 0.0
2019-Nov-15 22:28N 28°28' W 016°15'0 0.0
2019-Nov-15 19:58N 28°28' W 016°15'0 0.0
2019-Nov-15 18:58N 28°28' W 016°15'0 0.0
2019-Nov-15 17:58N 28°28' W 016°15'0 0.0
2019-Nov-15 15:28N 28°28' W 016°15'0 0.0
2019-Nov-15 13:28N 28°28' W 016°15'0 0.0
2019-Nov-15 11:58N 28°28' W 016°15'0 0.0
2019-Nov-15 09:28N 28°28' W 016°15'0 0.0
2019-Nov-15 08:28N 28°28' W 016°15'0 0.0
2019-Nov-15 06:58N 28°28' W 016°15'0 0.0
2019-Nov-15 04:28N 28°28' W 016°15'0 0.0
2019-Nov-15 03:28N 28°28' W 016°15'0 0.0
2019-Nov-14 23:58N 28°28' W 016°15'0 0.0
2019-Nov-14 22:28N 28°28' W 016°15'0 0.0
2019-Nov-14 19:28N 28°28' W 016°15'0 0.0
2019-Nov-14 18:58N 28°28' W 016°15'0 0.0
2019-Nov-14 18:28N 28°28' W 016°15'0 0.0
2019-Nov-14 17:58N 28°28' W 016°15'0 0.0
2019-Nov-14 17:28N 28°28' W 016°15'8 1.1
2019-Nov-14 10:30N 28°27' W 016°06'5 1.2
2019-Nov-14 06:29N 28°31' W 016°10'0 0.0
2019-Nov-14 03:59N 28°31' W 016°10'0 0.0
2019-Nov-14 01:59N 28°31' W 016°10'0 0.0
2019-Nov-13 23:29N 28°31' W 016°10'0 0.0
2019-Nov-13 21:29N 28°31' W 016°10'0 0.0
2019-Nov-13 20:29N 28°31' W 016°10'0 0.0
2019-Nov-13 18:29N 28°31' W 016°10'0 0.0
2019-Nov-13 17:59N 28°31' W 016°10'0 0.0
2019-Nov-13 15:59N 28°31' W 016°10'0 0.0
2019-Nov-13 14:29N 28°31' W 016°10'0 0.0
2019-Nov-13 13:59N 28°31' W 016°10'0 0.0
2019-Nov-13 12:29N 28°31' W 016°10'0 0.0
2019-Nov-13 11:29N 28°31' W 016°10'0 0.0
2019-Nov-13 09:59N 28°31' W 016°10'0 0.0
2019-Nov-13 09:29N 28°31' W 016°10'0 0.0
2019-Nov-13 08:29N 28°31' W 016°10'0 0.0
2019-Nov-13 05:59N 28°31' W 016°10'0 0.0
2019-Nov-13 02:59N 28°31' W 016°10'0 0.0
2019-Nov-13 02:29N 28°31' W 016°10'0 0.0
2019-Nov-13 01:59N 28°31' W 016°10'0 0.0
2019-Nov-12 23:59N 28°31' W 016°10'0 0.0
2019-Nov-12 23:29N 28°31' W 016°10'0 0.0
2019-Nov-12 21:59N 28°31' W 016°10'0 0.0
2019-Nov-12 17:59N 28°31' W 016°10'5 2.1
2019-Nov-12 15:30N 28°33' W 016°04'3 6.0
2019-Nov-12 14:59N 28°33' W 016°01'6 5.2
2019-Nov-12 13:50N 28°35' W 015°54'1 2.7
2019-Nov-12 13:28N 28°35' W 015°55'1 2.0
2019-Nov-12 12:59N 28°36' W 015°54'3 3.3
2019-Nov-12 12:00N 28°38' W 015°51'3 4.3
2019-Nov-12 11:20N 28°41' W 015°50'37 4.6
2019-Nov-12 03:19N 29°11' W 016°12'28 4.8
2019-Nov-11 21:29N 29°25' W 015°44'  

Dump ship's entire track history